sensor_id;sensor_type;location;lat;lon;timestamp;P1;durP1;ratioP1;P2;durP2;ratioP2
42282;SDS011;28237;47.954;21.730;2023-08-31T00:00:27;211.98;;;170.25;;
42282;SDS011;28237;47.954;21.730;2023-08-31T00:02:53;203.98;;;179.32;;
42282;SDS011;28237;47.954;21.730;2023-08-31T00:05:19;240.38;;;179.77;;
42282;SDS011;28237;47.954;21.730;2023-08-31T00:07:44;275.88;;;190.73;;
42282;SDS011;28237;47.954;21.730;2023-08-31T00:10:10;216.48;;;176.50;;
42282;SDS011;28237;47.954;21.730;2023-08-31T00:12:36;213.65;;;184.45;;
42282;SDS011;28237;47.954;21.730;2023-08-31T00:15:03;190.07;;;169.40;;
42282;SDS011;28237;47.954;21.730;2023-08-31T00:17:30;199.05;;;169.93;;
42282;SDS011;28237;47.954;21.730;2023-08-31T00:20:00;223.65;;;186.93;;
42282;SDS011;28237;47.954;21.730;2023-08-31T00:22:25;184.32;;;163.70;;
42282;SDS011;28237;47.954;21.730;2023-08-31T00:24:51;187.80;;;158.60;;
42282;SDS011;28237;47.954;21.730;2023-08-31T00:27:16;209.32;;;169.45;;
42282;SDS011;28237;47.954;21.730;2023-08-31T00:29:42;203.88;;;172.15;;
42282;SDS011;28237;47.954;21.730;2023-08-31T00:32:11;226.23;;;173.10;;
42282;SDS011;28237;47.954;21.730;2023-08-31T00:34:36;190.68;;;169.77;;
42282;SDS011;28237;47.954;21.730;2023-08-31T00:37:02;210.20;;;172.98;;
42282;SDS011;28237;47.954;21.730;2023-08-31T00:39:27;173.17;;;152.10;;
42282;SDS011;28237;47.954;21.730;2023-08-31T00:41:53;205.50;;;167.80;;
42282;SDS011;28237;47.954;21.730;2023-08-31T00:44:18;209.73;;;176.52;;
42282;SDS011;28237;47.954;21.730;2023-08-31T00:46:44;175.30;;;152.07;;
42282;SDS011;28237;47.954;21.730;2023-08-31T00:49:10;222.80;;;174.07;;
42282;SDS011;28237;47.954;21.730;2023-08-31T00:51:35;200.07;;;161.02;;
42282;SDS011;28237;47.954;21.730;2023-08-31T00:54:01;197.43;;;163.25;;
42282;SDS011;28237;47.954;21.730;2023-08-31T00:56:27;187.75;;;167.30;;
42282;SDS011;28237;47.954;21.730;2023-08-31T00:58:53;191.27;;;154.77;;
42282;SDS011;28237;47.954;21.730;2023-08-31T01:01:25;171.27;;;150.60;;
42282;SDS011;28237;47.954;21.730;2023-08-31T01:04:03;206.23;;;155.95;;
42282;SDS011;28237;47.954;21.730;2023-08-31T01:06:49;214.05;;;159.88;;
42282;SDS011;28237;47.954;21.730;2023-08-31T01:09:30;178.15;;;154.88;;
42282;SDS011;28237;47.954;21.730;2023-08-31T01:12:03;176.05;;;157.20;;
42282;SDS011;28237;47.954;21.730;2023-08-31T01:14:41;207.45;;;160.13;;
42282;SDS011;28237;47.954;21.730;2023-08-31T01:17:07;181.85;;;152.85;;
42282;SDS011;28237;47.954;21.730;2023-08-31T01:22:07;189.48;;;170.45;;
42282;SDS011;28237;47.954;21.730;2023-08-31T01:24:33;191.35;;;144.40;;
42282;SDS011;28237;47.954;21.730;2023-08-31T01:26:59;160.93;;;145.00;;
42282;SDS011;28237;47.954;21.730;2023-08-31T01:29:24;196.95;;;161.20;;
42282;SDS011;28237;47.954;21.730;2023-08-31T01:31:50;175.20;;;154.15;;
42282;SDS011;28237;47.954;21.730;2023-08-31T01:34:16;191.87;;;147.80;;
42282;SDS011;28237;47.954;21.730;2023-08-31T01:36:42;169.00;;;146.52;;
42282;SDS011;28237;47.954;21.730;2023-08-31T01:39:44;202.70;;;158.57;;
42282;SDS011;28237;47.954;21.730;2023-08-31T01:42:03;170.15;;;150.48;;
42282;SDS011;28237;47.954;21.730;2023-08-31T01:44:33;202.75;;;159.95;;
42282;SDS011;28237;47.954;21.730;2023-08-31T01:47:05;199.32;;;166.77;;
42282;SDS011;28237;47.954;21.730;2023-08-31T01:49:37;187.95;;;164.82;;
42282;SDS011;28237;47.954;21.730;2023-08-31T01:52:06;178.70;;;148.23;;
42282;SDS011;28237;47.954;21.730;2023-08-31T01:54:34;164.23;;;146.68;;
42282;SDS011;28237;47.954;21.730;2023-08-31T01:57:07;172.70;;;154.40;;
42282;SDS011;28237;47.954;21.730;2023-08-31T01:59:33;155.80;;;139.35;;
42282;SDS011;28237;47.954;21.730;2023-08-31T02:01:59;170.93;;;151.73;;
42282;SDS011;28237;47.954;21.730;2023-08-31T02:04:24;184.45;;;146.80;;
42282;SDS011;28237;47.954;21.730;2023-08-31T02:06:49;160.48;;;140.15;;
42282;SDS011;28237;47.954;21.730;2023-08-31T02:09:15;166.63;;;146.57;;
42282;SDS011;28237;47.954;21.730;2023-08-31T02:11:40;177.27;;;155.15;;
42282;SDS011;28237;47.954;21.730;2023-08-31T02:14:05;172.70;;;154.43;;
42282;SDS011;28237;47.954;21.730;2023-08-31T02:16:32;161.75;;;144.68;;
42282;SDS011;28237;47.954;21.730;2023-08-31T02:19:00;172.05;;;153.75;;
42282;SDS011;28237;47.954;21.730;2023-08-31T02:21:25;170.30;;;151.85;;
42282;SDS011;28237;47.954;21.730;2023-08-31T02:23:51;161.15;;;143.88;;
42282;SDS011;28237;47.954;21.730;2023-08-31T02:26:16;169.93;;;150.57;;
42282;SDS011;28237;47.954;21.730;2023-08-31T02:28:44;165.85;;;143.30;;
42282;SDS011;28237;47.954;21.730;2023-08-31T02:31:13;154.52;;;138.98;;
42282;SDS011;28237;47.954;21.730;2023-08-31T02:33:38;161.10;;;142.70;;
42282;SDS011;28237;47.954;21.730;2023-08-31T02:36:06;174.32;;;149.63;;
42282;SDS011;28237;47.954;21.730;2023-08-31T02:38:31;176.88;;;156.65;;
42282;SDS011;28237;47.954;21.730;2023-08-31T02:41:00;221.98;;;165.43;;
42282;SDS011;28237;47.954;21.730;2023-08-31T02:43:25;168.10;;;138.93;;
42282;SDS011;28237;47.954;21.730;2023-08-31T02:46:01;166.60;;;148.63;;
42282;SDS011;28237;47.954;21.730;2023-08-31T02:48:27;168.63;;;144.57;;
42282;SDS011;28237;47.954;21.730;2023-08-31T02:50:53;211.32;;;160.70;;
42282;SDS011;28237;47.954;21.730;2023-08-31T02:53:18;161.10;;;145.60;;
42282;SDS011;28237;47.954;21.730;2023-08-31T02:55:44;164.68;;;142.93;;
42282;SDS011;28237;47.954;21.730;2023-08-31T02:58:15;161.93;;;141.32;;
42282;SDS011;28237;47.954;21.730;2023-08-31T03:00:40;171.65;;;152.88;;
42282;SDS011;28237;47.954;21.730;2023-08-31T03:03:07;168.02;;;150.75;;
42282;SDS011;28237;47.954;21.730;2023-08-31T03:05:39;160.23;;;140.23;;
42282;SDS011;28237;47.954;21.730;2023-08-31T03:08:04;161.50;;;143.85;;
42282;SDS011;28237;47.954;21.730;2023-08-31T03:10:30;157.93;;;140.93;;
42282;SDS011;28237;47.954;21.730;2023-08-31T03:12:55;153.17;;;135.63;;
42282;SDS011;28237;47.954;21.730;2023-08-31T03:15:20;176.32;;;149.68;;
42282;SDS011;28237;47.954;21.730;2023-08-31T03:17:47;159.50;;;141.63;;
42282;SDS011;28237;47.954;21.730;2023-08-31T03:20:12;156.57;;;140.23;;
42282;SDS011;28237;47.954;21.730;2023-08-31T03:22:40;158.33;;;143.40;;
42282;SDS011;28237;47.954;21.730;2023-08-31T03:25:06;156.70;;;140.55;;
42282;SDS011;28237;47.954;21.730;2023-08-31T03:27:31;163.10;;;146.00;;
42282;SDS011;28237;47.954;21.730;2023-08-31T03:29:56;154.00;;;137.57;;
42282;SDS011;28237;47.954;21.730;2023-08-31T03:32:22;168.50;;;150.35;;
42282;SDS011;28237;47.954;21.730;2023-08-31T03:34:48;165.88;;;143.52;;
42282;SDS011;28237;47.954;21.730;2023-08-31T03:37:13;153.50;;;137.73;;
42282;SDS011;28237;47.954;21.730;2023-08-31T03:39:38;182.83;;;151.50;;
42282;SDS011;28237;47.954;21.730;2023-08-31T03:42:06;168.55;;;151.30;;
42282;SDS011;28237;47.954;21.730;2023-08-31T03:44:31;149.45;;;133.85;;
42282;SDS011;28237;47.954;21.730;2023-08-31T03:46:57;162.90;;;146.23;;
42282;SDS011;28237;47.954;21.730;2023-08-31T03:49:22;164.80;;;143.65;;
42282;SDS011;28237;47.954;21.730;2023-08-31T03:51:47;163.33;;;145.17;;
42282;SDS011;28237;47.954;21.730;2023-08-31T03:54:13;155.20;;;139.18;;
42282;SDS011;28237;47.954;21.730;2023-08-31T03:56:38;170.17;;;141.10;;
42282;SDS011;28237;47.954;21.730;2023-08-31T03:59:06;166.10;;;145.77;;
42282;SDS011;28237;47.954;21.730;2023-08-31T04:01:32;169.13;;;152.05;;
42282;SDS011;28237;47.954;21.730;2023-08-31T04:03:57;172.63;;;143.30;;
42282;SDS011;28237;47.954;21.730;2023-08-31T04:06:22;163.03;;;144.77;;
42282;SDS011;28237;47.954;21.730;2023-08-31T04:08:48;170.68;;;152.30;;
42282;SDS011;28237;47.954;21.730;2023-08-31T04:11:16;164.40;;;146.93;;
42282;SDS011;28237;47.954;21.730;2023-08-31T04:13:44;150.63;;;134.38;;
42282;SDS011;28237;47.954;21.730;2023-08-31T04:16:10;157.40;;;141.55;;
42282;SDS011;28237;47.954;21.730;2023-08-31T04:18:35;149.52;;;131.95;;
42282;SDS011;28237;47.954;21.730;2023-08-31T04:21:00;158.30;;;142.85;;
42282;SDS011;28237;47.954;21.730;2023-08-31T04:23:28;149.68;;;134.27;;
42282;SDS011;28237;47.954;21.730;2023-08-31T04:25:54;181.35;;;160.02;;
42282;SDS011;28237;47.954;21.730;2023-08-31T04:28:19;163.63;;;145.35;;
42282;SDS011;28237;47.954;21.730;2023-08-31T04:30:45;161.68;;;145.50;;
42282;SDS011;28237;47.954;21.730;2023-08-31T04:33:10;182.20;;;160.88;;
42282;SDS011;28237;47.954;21.730;2023-08-31T04:35:36;153.23;;;136.40;;
42282;SDS011;28237;47.954;21.730;2023-08-31T04:38:01;156.60;;;140.57;;
42282;SDS011;28237;47.954;21.730;2023-08-31T04:40:27;171.23;;;152.25;;
42282;SDS011;28237;47.954;21.730;2023-08-31T04:42:56;163.82;;;147.90;;
42282;SDS011;28237;47.954;21.730;2023-08-31T04:45:24;170.82;;;142.00;;
42282;SDS011;28237;47.954;21.730;2023-08-31T04:47:51;153.77;;;137.50;;
42282;SDS011;28237;47.954;21.730;2023-08-31T04:50:17;175.52;;;156.85;;
42282;SDS011;28237;47.954;21.730;2023-08-31T04:52:42;154.75;;;138.80;;
42282;SDS011;28237;47.954;21.730;2023-08-31T04:55:08;153.27;;;137.70;;
42282;SDS011;28237;47.954;21.730;2023-08-31T04:57:38;151.38;;;136.27;;
42282;SDS011;28237;47.954;21.730;2023-08-31T05:00:03;170.65;;;148.35;;
42282;SDS011;28237;47.954;21.730;2023-08-31T05:02:29;165.95;;;148.68;;
42282;SDS011;28237;47.954;21.730;2023-08-31T05:04:55;165.70;;;148.37;;
42282;SDS011;28237;47.954;21.730;2023-08-31T05:07:20;175.23;;;143.80;;
42282;SDS011;28237;47.954;21.730;2023-08-31T05:09:46;143.73;;;129.43;;
42282;SDS011;28237;47.954;21.730;2023-08-31T05:12:11;154.57;;;136.03;;
42282;SDS011;28237;47.954;21.730;2023-08-31T05:14:36;131.05;;;118.00;;
42282;SDS011;28237;47.954;21.730;2023-08-31T05:17:05;125.10;;;112.75;;
42282;SDS011;28237;47.954;21.730;2023-08-31T05:19:31;149.82;;;135.07;;
42282;SDS011;28237;47.954;21.730;2023-08-31T05:21:56;157.52;;;140.90;;
42282;SDS011;28237;47.954;21.730;2023-08-31T05:24:21;145.27;;;129.70;;
42282;SDS011;28237;47.954;21.730;2023-08-31T05:26:47;139.75;;;126.07;;
42282;SDS011;28237;47.954;21.730;2023-08-31T05:29:12;157.00;;;140.50;;
42282;SDS011;28237;47.954;21.730;2023-08-31T05:31:37;157.38;;;140.85;;
42282;SDS011;28237;47.954;21.730;2023-08-31T05:34:03;147.90;;;133.70;;
42282;SDS011;28237;47.954;21.730;2023-08-31T05:36:28;144.27;;;129.65;;
42282;SDS011;28237;47.954;21.730;2023-08-31T05:38:53;134.63;;;122.23;;
42282;SDS011;28237;47.954;21.730;2023-08-31T05:41:19;140.52;;;125.63;;
42282;SDS011;28237;47.954;21.730;2023-08-31T05:43:44;155.13;;;135.55;;
42282;SDS011;28237;47.954;21.730;2023-08-31T05:46:10;153.77;;;138.40;;
42282;SDS011;28237;47.954;21.730;2023-08-31T05:48:36;142.35;;;126.97;;
42282;SDS011;28237;47.954;21.730;2023-08-31T05:51:01;137.23;;;123.68;;
42282;SDS011;28237;47.954;21.730;2023-08-31T05:53:28;139.25;;;125.28;;
42282;SDS011;28237;47.954;21.730;2023-08-31T05:55:54;147.43;;;132.15;;
42282;SDS011;28237;47.954;21.730;2023-08-31T05:58:19;121.85;;;109.82;;
42282;SDS011;28237;47.954;21.730;2023-08-31T06:00:45;130.90;;;117.88;;
42282;SDS011;28237;47.954;21.730;2023-08-31T06:03:10;123.63;;;111.18;;
42282;SDS011;28237;47.954;21.730;2023-08-31T06:05:36;127.30;;;113.60;;
42282;SDS011;28237;47.954;21.730;2023-08-31T06:08:01;126.77;;;113.70;;
42282;SDS011;28237;47.954;21.730;2023-08-31T06:10:26;124.65;;;111.25;;
42282;SDS011;28237;47.954;21.730;2023-08-31T06:12:51;126.77;;;113.33;;
42282;SDS011;28237;47.954;21.730;2023-08-31T06:15:17;115.78;;;104.10;;
42282;SDS011;28237;47.954;21.730;2023-08-31T06:17:44;128.02;;;115.40;;
42282;SDS011;28237;47.954;21.730;2023-08-31T06:20:09;127.15;;;113.85;;
42282;SDS011;28237;47.954;21.730;2023-08-31T06:22:35;132.40;;;118.85;;
42282;SDS011;28237;47.954;21.730;2023-08-31T06:25:00;150.30;;;127.78;;
42282;SDS011;28237;47.954;21.730;2023-08-31T06:27:26;147.93;;;127.63;;
42282;SDS011;28237;47.954;21.730;2023-08-31T06:29:51;147.70;;;124.53;;
42282;SDS011;28237;47.954;21.730;2023-08-31T06:32:17;153.30;;;121.90;;
42282;SDS011;28237;47.954;21.730;2023-08-31T06:34:42;164.77;;;134.80;;
42282;SDS011;28237;47.954;21.730;2023-08-31T06:37:07;175.97;;;126.17;;
42282;SDS011;28237;47.954;21.730;2023-08-31T06:39:33;158.45;;;137.57;;
42282;SDS011;28237;47.954;21.730;2023-08-31T06:41:58;151.90;;;120.22;;
42282;SDS011;28237;47.954;21.730;2023-08-31T06:44:24;136.02;;;113.00;;
42282;SDS011;28237;47.954;21.730;2023-08-31T06:46:49;178.30;;;138.60;;
42282;SDS011;28237;47.954;21.730;2023-08-31T06:49:14;139.60;;;111.17;;
42282;SDS011;28237;47.954;21.730;2023-08-31T06:51:40;109.13;;;97.63;;
42282;SDS011;28237;47.954;21.730;2023-08-31T06:54:05;123.38;;;98.15;;
42282;SDS011;28237;47.954;21.730;2023-08-31T06:56:34;128.93;;;105.68;;
42282;SDS011;28237;47.954;21.730;2023-08-31T06:58:59;95.80;;;84.15;;
42282;SDS011;28237;47.954;21.730;2023-08-31T07:01:24;95.90;;;85.50;;
42282;SDS011;28237;47.954;21.730;2023-08-31T07:03:50;134.27;;;99.70;;
42282;SDS011;28237;47.954;21.730;2023-08-31T07:06:15;108.55;;;92.15;;
42282;SDS011;28237;47.954;21.730;2023-08-31T07:08:40;95.55;;;83.57;;
42282;SDS011;28237;47.954;21.730;2023-08-31T07:11:07;111.30;;;86.78;;
42282;SDS011;28237;47.954;21.730;2023-08-31T07:13:32;93.72;;;83.80;;
42282;SDS011;28237;47.954;21.730;2023-08-31T07:15:57;82.82;;;73.82;;
42282;SDS011;28237;47.954;21.730;2023-08-31T07:18:23;91.10;;;81.47;;
42282;SDS011;28237;47.954;21.730;2023-08-31T07:20:48;96.68;;;82.80;;
42282;SDS011;28237;47.954;21.730;2023-08-31T07:23:13;81.87;;;73.07;;
42282;SDS011;28237;47.954;21.730;2023-08-31T07:25:39;77.35;;;68.53;;
42282;SDS011;28237;47.954;21.730;2023-08-31T07:28:04;93.72;;;80.90;;
42282;SDS011;28237;47.954;21.730;2023-08-31T07:30:29;66.68;;;59.42;;
42282;SDS011;28237;47.954;21.730;2023-08-31T07:32:55;74.43;;;67.20;;
42282;SDS011;28237;47.954;21.730;2023-08-31T07:35:20;81.47;;;72.70;;
42282;SDS011;28237;47.954;21.730;2023-08-31T07:37:46;79.60;;;67.75;;
42282;SDS011;28237;47.954;21.730;2023-08-31T07:40:11;82.23;;;73.83;;
42282;SDS011;28237;47.954;21.730;2023-08-31T07:42:37;68.82;;;57.55;;
42282;SDS011;28237;47.954;21.730;2023-08-31T07:45:02;69.45;;;62.28;;
42282;SDS011;28237;47.954;21.730;2023-08-31T07:47:28;64.85;;;57.83;;
42282;SDS011;28237;47.954;21.730;2023-08-31T07:49:53;68.37;;;61.00;;
42282;SDS011;28237;47.954;21.730;2023-08-31T07:52:19;58.20;;;52.00;;
42282;SDS011;28237;47.954;21.730;2023-08-31T07:54:44;56.30;;;50.38;;
42282;SDS011;28237;47.954;21.730;2023-08-31T07:57:09;60.53;;;54.03;;
42282;SDS011;28237;47.954;21.730;2023-08-31T07:59:35;60.20;;;53.87;;
42282;SDS011;28237;47.954;21.730;2023-08-31T08:02:00;53.07;;;48.17;;
42282;SDS011;28237;47.954;21.730;2023-08-31T08:04:25;68.27;;;61.00;;
42282;SDS011;28237;47.954;21.730;2023-08-31T08:06:51;57.38;;;51.30;;
42282;SDS011;28237;47.954;21.730;2023-08-31T08:09:17;52.55;;;46.90;;
42282;SDS011;28237;47.954;21.730;2023-08-31T08:11:42;46.10;;;41.53;;
42282;SDS011;28237;47.954;21.730;2023-08-31T08:14:08;57.15;;;51.35;;
42282;SDS011;28237;47.954;21.730;2023-08-31T08:16:33;47.83;;;42.70;;
42282;SDS011;28237;47.954;21.730;2023-08-31T08:19:00;59.60;;;49.28;;
42282;SDS011;28237;47.954;21.730;2023-08-31T08:21:26;51.80;;;46.45;;
42282;SDS011;28237;47.954;21.730;2023-08-31T08:23:51;51.77;;;44.67;;
42282;SDS011;28237;47.954;21.730;2023-08-31T08:26:17;48.70;;;43.85;;
42282;SDS011;28237;47.954;21.730;2023-08-31T08:28:42;50.35;;;45.08;;
42282;SDS011;28237;47.954;21.730;2023-08-31T08:31:07;44.80;;;40.03;;
42282;SDS011;28237;47.954;21.730;2023-08-31T08:33:33;44.57;;;39.80;;
42282;SDS011;28237;47.954;21.730;2023-08-31T08:35:58;45.30;;;40.63;;
42282;SDS011;28237;47.954;21.730;2023-08-31T08:38:25;41.97;;;37.45;;
42282;SDS011;28237;47.954;21.730;2023-08-31T08:40:50;38.13;;;34.35;;
42282;SDS011;28237;47.954;21.730;2023-08-31T08:43:15;39.47;;;34.77;;
42282;SDS011;28237;47.954;21.730;2023-08-31T08:45:45;45.13;;;40.65;;
42282;SDS011;28237;47.954;21.730;2023-08-31T08:48:12;43.83;;;39.13;;
42282;SDS011;28237;47.954;21.730;2023-08-31T08:50:38;43.30;;;34.22;;
42282;SDS011;28237;47.954;21.730;2023-08-31T08:53:03;40.17;;;36.15;;
42282;SDS011;28237;47.954;21.730;2023-08-31T08:55:29;42.00;;;37.65;;
42282;SDS011;28237;47.954;21.730;2023-08-31T08:57:55;35.60;;;32.00;;
42282;SDS011;28237;47.954;21.730;2023-08-31T09:00:20;39.17;;;32.47;;
42282;SDS011;28237;47.954;21.730;2023-08-31T09:02:46;44.00;;;39.83;;
42282;SDS011;28237;47.954;21.730;2023-08-31T09:05:11;44.13;;;39.47;;
42282;SDS011;28237;47.954;21.730;2023-08-31T09:07:36;45.30;;;40.83;;
42282;SDS011;28237;47.954;21.730;2023-08-31T09:10:02;36.75;;;32.90;;
42282;SDS011;28237;47.954;21.730;2023-08-31T09:12:28;33.08;;;29.73;;
42282;SDS011;28237;47.954;21.730;2023-08-31T09:15:00;32.33;;;27.23;;
42282;SDS011;28237;47.954;21.730;2023-08-31T09:17:26;38.03;;;29.15;;
42282;SDS011;28237;47.954;21.730;2023-08-31T09:20:00;29.17;;;23.38;;
42282;SDS011;28237;47.954;21.730;2023-08-31T09:22:29;32.80;;;26.20;;
42282;SDS011;28237;47.954;21.730;2023-08-31T09:24:54;30.73;;;27.50;;
42282;SDS011;28237;47.954;21.730;2023-08-31T09:27:20;27.08;;;23.05;;
42282;SDS011;28237;47.954;21.730;2023-08-31T09:29:45;24.40;;;19.25;;
42282;SDS011;28237;47.954;21.730;2023-08-31T09:32:15;21.17;;;18.98;;
42282;SDS011;28237;47.954;21.730;2023-08-31T09:34:40;23.48;;;19.88;;
42282;SDS011;28237;47.954;21.730;2023-08-31T09:37:07;22.65;;;20.35;;
42282;SDS011;28237;47.954;21.730;2023-08-31T09:39:40;27.75;;;24.67;;
42282;SDS011;28237;47.954;21.730;2023-08-31T09:42:06;23.00;;;17.55;;
42282;SDS011;28237;47.954;21.730;2023-08-31T09:44:31;23.30;;;18.45;;
42282;SDS011;28237;47.954;21.730;2023-08-31T09:46:56;23.37;;;15.07;;
42282;SDS011;28237;47.954;21.730;2023-08-31T09:49:23;20.90;;;17.00;;
42282;SDS011;28237;47.954;21.730;2023-08-31T09:51:49;24.25;;;18.33;;
42282;SDS011;28237;47.954;21.730;2023-08-31T09:54:16;29.65;;;18.05;;
42282;SDS011;28237;47.954;21.730;2023-08-31T09:56:42;28.27;;;19.42;;
42282;SDS011;28237;47.954;21.730;2023-08-31T09:59:08;30.50;;;18.75;;
42282;SDS011;28237;47.954;21.730;2023-08-31T10:01:34;26.05;;;15.55;;
42282;SDS011;28237;47.954;21.730;2023-08-31T10:04:00;24.92;;;15.98;;
42282;SDS011;28237;47.954;21.730;2023-08-31T10:06:26;27.50;;;18.42;;
42282;SDS011;28237;47.954;21.730;2023-08-31T10:08:52;24.15;;;16.05;;
42282;SDS011;28237;47.954;21.730;2023-08-31T10:11:18;27.60;;;16.48;;
42282;SDS011;28237;47.954;21.730;2023-08-31T10:13:43;29.17;;;17.17;;
42282;SDS011;28237;47.954;21.730;2023-08-31T10:16:09;26.55;;;16.73;;
42282;SDS011;28237;47.954;21.730;2023-08-31T10:18:36;24.63;;;15.88;;
42282;SDS011;28237;47.954;21.730;2023-08-31T10:21:02;26.45;;;13.02;;
42282;SDS011;28237;47.954;21.730;2023-08-31T10:23:28;25.23;;;12.13;;
42282;SDS011;28237;47.954;21.730;2023-08-31T10:28:28;20.88;;;9.27;;
42282;SDS011;28237;47.954;21.730;2023-08-31T10:33:24;19.15;;;10.15;;
42282;SDS011;28237;47.954;21.730;2023-08-31T10:35:51;19.85;;;11.18;;
42282;SDS011;28237;47.954;21.730;2023-08-31T10:38:22;18.55;;;9.85;;
42282;SDS011;28237;47.954;21.730;2023-08-31T10:41:02;18.45;;;10.63;;
42282;SDS011;28237;47.954;21.730;2023-08-31T10:43:41;18.45;;;10.18;;
42282;SDS011;28237;47.954;21.730;2023-08-31T10:46:14;18.92;;;12.15;;
42282;SDS011;28237;47.954;21.730;2023-08-31T10:48:49;15.57;;;9.52;;
42282;SDS011;28237;47.954;21.730;2023-08-31T10:51:18;17.35;;;9.38;;
42282;SDS011;28237;47.954;21.730;2023-08-31T10:53:46;16.75;;;8.95;;
42282;SDS011;28237;47.954;21.730;2023-08-31T10:56:11;15.90;;;9.88;;
42282;SDS011;28237;47.954;21.730;2023-08-31T10:58:37;17.23;;;9.68;;
42282;SDS011;28237;47.954;21.730;2023-08-31T11:01:02;18.47;;;8.40;;
42282;SDS011;28237;47.954;21.730;2023-08-31T11:03:29;15.95;;;10.52;;
42282;SDS011;28237;47.954;21.730;2023-08-31T11:05:55;15.00;;;8.90;;
42282;SDS011;28237;47.954;21.730;2023-08-31T11:08:24;13.97;;;10.57;;
42282;SDS011;28237;47.954;21.730;2023-08-31T11:10:49;14.05;;;8.95;;
42282;SDS011;28237;47.954;21.730;2023-08-31T11:13:21;14.85;;;8.50;;
42282;SDS011;28237;47.954;21.730;2023-08-31T11:15:47;15.60;;;8.30;;
42282;SDS011;28237;47.954;21.730;2023-08-31T11:18:16;14.38;;;8.95;;
42282;SDS011;28237;47.954;21.730;2023-08-31T11:20:43;14.45;;;7.72;;
42282;SDS011;28237;47.954;21.730;2023-08-31T11:23:08;14.75;;;7.40;;
42282;SDS011;28237;47.954;21.730;2023-08-31T11:25:34;13.40;;;8.50;;
42282;SDS011;28237;47.954;21.730;2023-08-31T11:28:00;15.60;;;8.25;;
42282;SDS011;28237;47.954;21.730;2023-08-31T11:30:27;13.13;;;7.90;;
42282;SDS011;28237;47.954;21.730;2023-08-31T11:32:53;13.35;;;6.63;;
42282;SDS011;28237;47.954;21.730;2023-08-31T11:35:19;13.85;;;8.82;;
42282;SDS011;28237;47.954;21.730;2023-08-31T11:37:48;12.20;;;8.48;;
42282;SDS011;28237;47.954;21.730;2023-08-31T11:40:14;11.40;;;7.13;;
42282;SDS011;28237;47.954;21.730;2023-08-31T11:42:39;11.38;;;7.13;;
42282;SDS011;28237;47.954;21.730;2023-08-31T11:45:05;11.32;;;7.00;;
42282;SDS011;28237;47.954;21.730;2023-08-31T11:47:31;10.55;;;8.60;;
42282;SDS011;28237;47.954;21.730;2023-08-31T11:49:57;10.52;;;7.03;;
42282;SDS011;28237;47.954;21.730;2023-08-31T11:52:23;10.40;;;7.90;;
42282;SDS011;28237;47.954;21.730;2023-08-31T11:54:49;11.07;;;7.38;;
42282;SDS011;28237;47.954;21.730;2023-08-31T11:57:17;10.15;;;7.63;;
42282;SDS011;28237;47.954;21.730;2023-08-31T11:59:42;10.73;;;6.40;;
42282;SDS011;28237;47.954;21.730;2023-08-31T12:02:08;11.32;;;8.02;;
42282;SDS011;28237;47.954;21.730;2023-08-31T12:04:33;12.20;;;5.30;;
42282;SDS011;28237;47.954;21.730;2023-08-31T12:07:06;11.40;;;8.68;;
42282;SDS011;28237;47.954;21.730;2023-08-31T12:09:32;12.00;;;5.87;;
42282;SDS011;28237;47.954;21.730;2023-08-31T12:11:57;9.48;;;6.72;;
42282;SDS011;28237;47.954;21.730;2023-08-31T12:14:24;10.52;;;9.05;;
42282;SDS011;28237;47.954;21.730;2023-08-31T12:16:50;10.52;;;6.32;;
42282;SDS011;28237;47.954;21.730;2023-08-31T12:19:15;9.90;;;6.65;;
42282;SDS011;28237;47.954;21.730;2023-08-31T12:21:44;11.52;;;5.35;;
42282;SDS011;28237;47.954;21.730;2023-08-31T12:24:10;9.93;;;5.82;;
42282;SDS011;28237;47.954;21.730;2023-08-31T12:26:35;10.80;;;6.25;;
42282;SDS011;28237;47.954;21.730;2023-08-31T12:29:01;10.98;;;6.72;;
42282;SDS011;28237;47.954;21.730;2023-08-31T12:31:26;10.82;;;6.57;;
42282;SDS011;28237;47.954;21.730;2023-08-31T12:33:51;11.15;;;5.63;;
42282;SDS011;28237;47.954;21.730;2023-08-31T12:36:16;11.53;;;6.20;;
42282;SDS011;28237;47.954;21.730;2023-08-31T12:38:42;11.48;;;5.45;;
42282;SDS011;28237;47.954;21.730;2023-08-31T12:41:07;10.63;;;7.13;;
42282;SDS011;28237;47.954;21.730;2023-08-31T12:43:33;10.95;;;6.80;;
42282;SDS011;28237;47.954;21.730;2023-08-31T12:45:59;10.95;;;6.18;;
42282;SDS011;28237;47.954;21.730;2023-08-31T12:48:24;11.87;;;7.60;;
42282;SDS011;28237;47.954;21.730;2023-08-31T12:50:49;11.93;;;8.10;;
42282;SDS011;28237;47.954;21.730;2023-08-31T12:53:15;12.17;;;6.67;;
42282;SDS011;28237;47.954;21.730;2023-08-31T12:55:40;10.98;;;5.97;;
42282;SDS011;28237;47.954;21.730;2023-08-31T12:58:05;10.87;;;5.50;;
42282;SDS011;28237;47.954;21.730;2023-08-31T13:00:31;12.00;;;7.00;;
42282;SDS011;28237;47.954;21.730;2023-08-31T13:02:56;10.83;;;6.63;;
42282;SDS011;28237;47.954;21.730;2023-08-31T13:05:21;10.93;;;6.65;;
42282;SDS011;28237;47.954;21.730;2023-08-31T13:07:47;10.25;;;7.63;;
42282;SDS011;28237;47.954;21.730;2023-08-31T13:10:12;12.23;;;6.00;;
42282;SDS011;28237;47.954;21.730;2023-08-31T13:12:37;10.53;;;7.13;;
42282;SDS011;28237;47.954;21.730;2023-08-31T13:15:02;10.93;;;5.70;;
42282;SDS011;28237;47.954;21.730;2023-08-31T13:17:28;10.88;;;5.20;;
42282;SDS011;28237;47.954;21.730;2023-08-31T13:19:53;10.57;;;5.75;;
42282;SDS011;28237;47.954;21.730;2023-08-31T13:22:19;11.20;;;5.88;;
42282;SDS011;28237;47.954;21.730;2023-08-31T13:24:45;10.83;;;6.30;;
42282;SDS011;28237;47.954;21.730;2023-08-31T13:27:10;10.88;;;5.75;;
42282;SDS011;28237;47.954;21.730;2023-08-31T13:29:35;11.15;;;5.68;;
42282;SDS011;28237;47.954;21.730;2023-08-31T13:32:01;9.95;;;6.72;;
42282;SDS011;28237;47.954;21.730;2023-08-31T13:34:26;13.83;;;5.10;;
42282;SDS011;28237;47.954;21.730;2023-08-31T13:36:51;11.17;;;5.90;;
42282;SDS011;28237;47.954;21.730;2023-08-31T13:39:17;12.90;;;4.80;;
42282;SDS011;28237;47.954;21.730;2023-08-31T13:41:42;11.60;;;6.13;;
42282;SDS011;28237;47.954;21.730;2023-08-31T13:44:07;12.25;;;4.95;;
42282;SDS011;28237;47.954;21.730;2023-08-31T13:46:33;12.67;;;6.47;;
42282;SDS011;28237;47.954;21.730;2023-08-31T13:48:58;12.40;;;5.53;;
42282;SDS011;28237;47.954;21.730;2023-08-31T13:51:23;12.73;;;7.33;;
42282;SDS011;28237;47.954;21.730;2023-08-31T13:53:48;12.43;;;7.50;;
42282;SDS011;28237;47.954;21.730;2023-08-31T13:56:14;12.50;;;4.87;;
42282;SDS011;28237;47.954;21.730;2023-08-31T13:58:39;12.53;;;5.63;;
42282;SDS011;28237;47.954;21.730;2023-08-31T14:01:06;11.77;;;6.80;;